| time (UTC) | temp C | wind direction | speed KPH | gust KPH | rain 1hr cm | rain 24hr cm | rain mn cm | humidity % | barometer mb |
| 20260509102524 | 10 | 186 | 14.5 | 25.7 | 0.00 | 0.00 | 0.00 | 49 | 999.3 |
| 20260509101514 | 10 | 165 | 14.5 | 29.0 | 0.00 | 0.00 | 0.00 | 49 | 999.4 |
| 20260509101510 | 10 | 167 | 16.1 | 32.2 | 0.00 | 0.00 | 0.00 | 48 | 998.2 |
| 20260509100535 | 10 | 160 | 12.9 | 24.1 | 0.00 | 0.00 | 0.00 | 49 | 999.6 |
| 20260509100024 | 10 | 188 | 14.5 | 27.4 | 0.00 | 0.00 | 0.00 | 49 | 999.7 |
| 20260509100006 | 10 | 178 | 16.1 | 30.6 | 0.00 | 0.00 | 0.00 | 48 | 998.4 |
| 20260509095535 | 10 | 154 | 12.9 | 22.5 | 0.00 | 0.00 | 0.00 | 49 | 999.7 |
| 20260509095024 | 10 | 180 | 12.9 | 22.5 | 0.00 | 0.00 | 0.00 | 49 | 999.6 |
| 20260509094514 | 10 | 167 | 17.7 | 29.0 | 0.00 | 0.00 | 0.00 | 49 | 998.5 |
| 20260509094035 | 9 | 170 | 16.1 | 25.7 | 0.00 | 0.00 | 0.00 | 50 | 1000.0 |
| 20260509093513 | 9 | 140 | 14.5 | 29.0 | 0.00 | 0.00 | 0.00 | 49 | 1000.0 |
| 20260509093016 | 9 | 192 | 16.1 | 30.6 | 0.00 | 0.00 | 0.00 | 49 | 998.8 |
| 20260509093013 | 9 | 176 | 14.5 | 29.0 | 0.00 | 0.00 | 0.00 | 50 | 1000.1 |
| 20260509092013 | 9 | 171 | 12.9 | 24.1 | 0.00 | 0.00 | 0.00 | 49 | 1000.1 |
| 20260509091503 | 10 | 157 | 16.1 | 29.0 | 0.00 | 0.00 | 0.00 | 48 | 999.0 |
| 20260509091035 | 10 | 176 | 11.3 | 20.9 | 0.00 | 0.00 | 0.00 | 49 | 1000.3 |
| 20260509090513 | 10 | 185 | 11.3 | 22.5 | 0.00 | 0.00 | 0.00 | 48 | 1000.3 |
| 20260509090024 | 10 | 149 | 14.5 | 22.5 | 0.00 | 0.00 | 0.00 | 49 | 1000.3 |
| 20260509090005 | 10 | 161 | 14.5 | 24.1 | 0.00 | 0.00 | 0.00 | 48 | 999.6 |
| 20260509085513 | 10 | 137 | 12.9 | 20.9 | 0.00 | 0.00 | 0.00 | 49 | 1000.3 |
| 20260509084513 | 10 | 157 | 11.3 | 20.9 | 0.00 | 0.00 | 0.00 | 49 | 1000.5 |
| 20260509084506 | 10 | 141 | 11.3 | 25.7 | 0.00 | 0.00 | 0.00 | 48 | 999.7 |
| 20260509084024 | 10 | 155 | 11.3 | 17.7 | 0.00 | 0.00 | 0.00 | 49 | 1000.6 |
| 20260509083547 | 10 | 178 | 11.3 | 25.7 | 0.00 | 0.00 | 0.00 | 49 | 1000.6 |
| 20260509083012 | 10 | 157 | 14.5 | 25.7 | 0.00 | 0.00 | 0.00 | 49 | 999.5 |
| 20260509082513 | 10 | 167 | 12.9 | 17.7 | 0.00 | 0.00 | 0.00 | 50 | 1000.9 |
| 20260509082013 | 10 | 178 | 9.7 | 16.1 | 0.00 | 0.00 | 0.00 | 50 | 1000.9 |
| 20260509081524 | 10 | 161 | 11.3 | 17.7 | 0.00 | 0.00 | 0.00 | 50 | 1001.0 |
| 20260509081518 | 10 | 177 | 11.3 | 20.9 | 0.00 | 0.00 | 0.00 | 50 | 999.7 |
| 20260509081013 | 10 | 137 | 11.3 | 16.1 | 0.00 | 0.00 | 0.00 | 50 | 1000.9 |
| 20260509080513 | 10 | 171 | 11.3 | 17.7 | 0.00 | 0.00 | 0.00 | 50 | 1001.1 |
| 20260509080013 | 10 | 144 | 9.7 | 19.3 | 0.00 | 0.00 | 0.00 | 51 | 1001.2 |
| 20260509080004 | 10 | 164 | 9.7 | 22.5 | 0.00 | 0.00 | 0.00 | 50 | 1000.0 |
| 20260509075513 | 10 | 156 | 11.3 | 17.7 | 0.00 | 0.00 | 0.00 | 50 | 1001.2 |
| 20260509075035 | 9 | 153 | 9.7 | 17.7 | 0.00 | 0.00 | 0.00 | 52 | 1001.4 |
| 20260509074513 | 9 | 153 | 12.9 | 17.7 | 0.00 | 0.00 | 0.00 | 53 | 1001.5 |
| 20260509074505 | 9 | 167 | 12.9 | 20.9 | 0.00 | 0.00 | 0.00 | 52 | 1000.3 |
| 20260509074013 | 9 | 157 | 9.7 | 16.1 | 0.00 | 0.00 | 0.00 | 54 | 1001.5 |
| 20260509073524 | 9 | 155 | 9.7 | 14.5 | 0.00 | 0.00 | 0.00 | 54 | 1001.6 |
| 20260509073013 | 9 | 160 | 9.7 | 16.1 | 0.00 | 0.00 | 0.00 | 55 | 1001.7 |
| 20260509073010 | 9 | 144 | 9.7 | 19.3 | 0.00 | 0.00 | 0.00 | 54 | 1000.9 |
| 20260509071515 | 8 | 178 | 8.0 | 16.1 | 0.00 | 0.00 | 0.00 | 56 | 1001.2 |
| 20260509071513 | 8 | 173 | 8.0 | 16.1 | 0.00 | 0.00 | 0.00 | 56 | 1002.1 |
| 20260509071013 | 8 | 179 | 9.7 | 16.1 | 0.00 | 0.00 | 0.00 | 56 | 1002.2 |
| 20260509070513 | 8 | 209 | 9.7 | 16.1 | 0.00 | 0.00 | 0.00 | 57 | 1002.3 |
| 20260509070022 | 8 | 167 | 6.4 | 14.5 | 0.00 | 0.00 | 0.00 | 59 | 1000.8 |
| 20260509070013 | 8 | 152 | 6.4 | 12.9 | 0.00 | 0.00 | 0.00 | 59 | 1002.2 |
| 20260509065535 | 8 | 164 | 8.0 | 12.9 | 0.00 | 0.00 | 0.00 | 61 | 1002.3 |
| 20260509065013 | 7 | 128 | 8.0 | 11.3 | 0.00 | 0.00 | 0.00 | 64 | 1002.3 |
| 20260509064513 | 7 | 123 | 8.0 | 11.3 | 0.00 | 0.00 | 0.00 | 67 | 1002.4 |
| 20260509064504 | 7 | 123 | 6.4 | 11.3 | 0.00 | 0.00 | 0.00 | 67 | 1001.1 |
| 20260509064035 | 7 | 111 | 6.4 | 8.0 | 0.00 | 0.00 | 0.00 | 68 | 1002.5 |
| 20260509063524 | 7 | 111 | 6.4 | 11.3 | 0.00 | 0.00 | 0.00 | 67 | 1002.6 |
| 20260509063013 | 7 | 122 | 8.0 | 11.3 | 0.00 | 0.00 | 0.00 | 65 | 1002.8 |
| 20260509063007 | 7 | 121 | 6.4 | 12.9 | 0.00 | 0.00 | 0.00 | 65 | 1001.6 |
| 20260509062514 | 7 | 101 | 6.4 | 12.9 | 0.00 | 0.00 | 0.00 | 65 | 1002.9 |
| 20260509062013 | 7 | 119 | 9.7 | 12.9 | 0.00 | 0.00 | 0.00 | 65 | 1003.1 |
| 20260509061515 | 7 | 126 | 4.8 | 9.7 | 0.00 | 0.00 | 0.00 | 65 | 1002.3 |
| 20260509061513 | 7 | 126 | 4.8 | 8.0 | 0.00 | 0.00 | 0.00 | 65 | 1003.2 |
| 20260509061013 | 7 | 126 | 4.8 | 6.4 | 0.00 | 0.00 | 0.00 | 66 | 1003.4 |
| 20260509060513 | 7 | 111 | 3.2 | 4.8 | 0.00 | 0.00 | 0.00 | 68 | 1003.3 |
| 20260509060026 | 7 | 111 | 1.6 | 3.2 | 0.00 | 0.00 | 0.00 | 72 | 1003.4 |
| 20260509060016 | 7 | 111 | 0.0 | 3.2 | 0.00 | 0.00 | 0.00 | 71 | 1002.8 |
| 20260509055524 | 7 | 111 | 1.6 | 3.2 | 0.00 | 0.00 | 0.00 | 69 | 1003.4 |
| 20260509055014 | 7 | 111 | 1.6 | 4.8 | 0.00 | 0.00 | 0.00 | 69 | 1003.6 |
| 20260509054524 | 7 | 111 | 3.2 | 4.8 | 0.00 | 0.00 | 0.00 | 68 | 1003.6 |
| 20260509054013 | 7 | 111 | 3.2 | 4.8 | 0.00 | 0.00 | 0.00 | 68 | 1003.7 |
| 20260509053535 | 7 | 111 | 1.6 | 6.4 | 0.00 | 0.00 | 0.00 | 69 | 1003.7 |
| 20260509053024 | 7 | 111 | 3.2 | 6.4 | 0.00 | 0.00 | 0.00 | 68 | 1002.7 |
| 20260509053013 | 7 | 111 | 3.2 | 6.4 | 0.00 | 0.00 | 0.00 | 68 | 1003.8 |
| 20260509052547 | 6 | 111 | 4.8 | 6.4 | 0.00 | 0.00 | 0.00 | 69 | 1003.9 |
| 20260509052013 | 7 | 53 | 3.2 | 8.0 | 0.00 | 0.00 | 0.00 | 70 | 1003.9 |
| 20260509051514 | 7 | 53 | 4.8 | 8.0 | 0.00 | 0.00 | 0.00 | 69 | 1004.0 |
| 20260509051512 | 7 | 53 | 4.8 | 8.0 | 0.00 | 0.00 | 0.00 | 68 | 1002.8 |
| 20260509050513 | 8 | 126 | 1.6 | 6.4 | 0.00 | 0.00 | 0.00 | 65 | 1004.0 |
| 20260509050025 | 8 | 126 | 3.2 | 6.4 | 0.00 | 0.00 | 0.00 | 58 | 1004.1 |
| 20260509050004 | 8 | 126 | 1.6 | 6.4 | 0.00 | 0.00 | 0.00 | 58 | 1002.9 |
| 20260509045513 | 8 | 133 | 4.8 | 6.4 | 0.00 | 0.00 | 0.00 | 58 | 1004.1 |
| 20260509045025 | 8 | 133 | 3.2 | 9.7 | 0.00 | 0.00 | 0.00 | 58 | 1004.1 |
| 20260509044513 | 8 | 141 | 4.8 | 12.9 | 0.00 | 0.00 | 0.00 | 58 | 1004.1 |
| 20260509044502 | 8 | 141 | 4.8 | 14.5 | 0.00 | 0.00 | 0.00 | 57 | 1003.2 |
| 20260509044024 | 8 | 146 | 8.0 | 12.9 | 0.00 | 0.00 | 0.00 | 58 | 1004.2 |
| 20260509043513 | 8 | 145 | 6.4 | 12.9 | 0.00 | 0.00 | 0.00 | 58 | 1004.2 |
| 20260509043014 | 8 | 143 | 8.0 | 14.5 | 0.00 | 0.00 | 0.00 | 58 | 1004.3 |
| 20260509043002 | 8 | 135 | 6.4 | 16.1 | 0.00 | 0.00 | 0.00 | 57 | 1003.6 |
| 20260509042547 | 8 | 139 | 8.0 | 16.1 | 0.00 | 0.00 | 0.00 | 58 | 1004.4 |
| 20260509042013 | 8 | 161 | 9.7 | 16.1 | 0.00 | 0.00 | 0.00 | 57 | 1004.5 |
| 20260509041536 | 8 | 130 | 11.3 | 16.1 | 0.00 | 0.00 | 0.00 | 57 | 1004.5 |
| 20260509041503 | 8 | 132 | 11.3 | 17.7 | 0.00 | 0.00 | 0.00 | 57 | 1003.4 |
| 20260509041024 | 8 | 147 | 11.3 | 16.1 | 0.00 | 0.00 | 0.00 | 57 | 1004.6 |
| 20260509040514 | 8 | 138 | 9.7 | 14.5 | 0.00 | 0.00 | 0.00 | 57 | 1004.5 |
| 20260509040014 | 8 | 137 | 9.7 | 17.7 | 0.00 | 0.00 | 0.00 | 58 | 1004.7 |
| 20260509040004 | 8 | 128 | 9.7 | 19.3 | 0.00 | 0.00 | 0.00 | 57 | 1003.5 |
| 20260509035525 | 8 | 159 | 11.3 | 17.7 | 0.00 | 0.00 | 0.00 | 57 | 1004.7 |
| 20260509035013 | 8 | 121 | 8.0 | 12.9 | 0.00 | 0.00 | 0.00 | 58 | 1004.8 |
| 20260509034524 | 8 | 142 | 9.7 | 12.9 | 0.00 | 0.00 | 0.00 | 58 | 1004.9 |
| 20260509034503 | 8 | 130 | 8.0 | 14.5 | 0.00 | 0.00 | 0.00 | 57 | 1003.8 |
| 20260509034013 | 8 | 135 | 9.7 | 12.9 | 0.00 | 0.00 | 0.00 | 57 | 1004.9 |
| 20260509033524 | 8 | 136 | 8.0 | 14.5 | 0.00 | 0.00 | 0.00 | 57 | 1005.0 |
| 20260509033036 | 8 | 142 | 8.0 | 14.5 | 0.00 | 0.00 | 0.00 | 56 | 1005.0 |
| 20260509033003 | 8 | 128 | 8.0 | 14.5 | 0.00 | 0.00 | 0.00 | 56 | 1004.0 |
| 20260509032013 | 8 | 173 | 6.4 | 14.5 | 0.00 | 0.00 | 0.00 | 57 | 1005.2 |
| 20260509031525 | 8 | 119 | 8.0 | 12.9 | 0.00 | 0.00 | 0.00 | 57 | 1005.2 |
| 20260509031509 | 8 | 129 | 6.4 | 14.5 | 0.00 | 0.00 | 0.00 | 57 | 1004.4 |
| 20260509031013 | 8 | 122 | 8.0 | 12.9 | 0.00 | 0.00 | 0.00 | 58 | 1005.3 |
| 20260509030525 | 8 | 138 | 9.7 | 14.5 | 0.00 | 0.00 | 0.00 | 58 | 1005.3 |
| 20260509030013 | 8 | 148 | 8.0 | 14.5 | 0.00 | 0.00 | 0.00 | 59 | 1005.4 |
| 20260509030003 | 8 | 134 | 6.4 | 16.1 | 0.00 | 0.00 | 0.00 | 59 | 1004.8 |
| 20260509025525 | 8 | 161 | 8.0 | 14.5 | 0.00 | 0.00 | 0.00 | 59 | 1005.5 |
| 20260509024502 | 8 | 119 | 8.0 | 16.1 | 0.00 | 0.00 | 0.00 | 58 | 1004.6 |
| 20260509024024 | 8 | 98 | 9.7 | 14.5 | 0.00 | 0.00 | 0.00 | 59 | 1005.5 |
| 20260509023524 | 8 | 123 | 9.7 | 14.5 | 0.00 | 0.00 | 0.00 | 59 | 1005.6 |
| 20260509023036 | 8 | 146 | 8.0 | 14.5 | 0.00 | 0.00 | 0.00 | 60 | 1005.7 |
| 20260509023003 | 8 | 148 | 8.0 | 16.1 | 0.00 | 0.00 | 0.00 | 59 | 1004.5 |
| 20260509022535 | 7 | 118 | 6.4 | 11.3 | 0.00 | 0.00 | 0.00 | 61 | 1005.8 |
| 20260509022013 | 7 | 137 | 6.4 | 9.7 | 0.00 | 0.00 | 0.00 | 62 | 1005.7 |
| 20260509021513 | 7 | 148 | 4.8 | 9.7 | 0.00 | 0.00 | 0.00 | 62 | 1005.8 |
| 20260509021505 | 7 | 150 | 3.2 | 11.3 | 0.00 | 0.00 | 0.00 | 62 | 1004.5 |
| 20260509021014 | 7 | 136 | 6.4 | 9.7 | 0.00 | 0.00 | 0.00 | 62 | 1005.8 |
| 20260509020547 | 7 | 126 | 6.4 | 9.7 | 0.00 | 0.00 | 0.00 | 62 | 1005.7 |
| 20260509020025 | 7 | 138 | 6.4 | 9.7 | 0.00 | 0.00 | 0.00 | 61 | 1005.8 |
| 20260509020003 | 7 | 124 | 6.4 | 11.3 | 0.00 | 0.00 | 0.00 | 61 | 1004.8 |
| 20260509015524 | 7 | 121 | 6.4 | 11.3 | 0.00 | 0.00 | 0.00 | 61 | 1005.8 |
| 20260509015036 | 7 | 107 | 6.4 | 11.3 | 0.00 | 0.00 | 0.00 | 60 | 1005.7 |
| 20260509014513 | 7 | 124 | 6.4 | 11.3 | 0.00 | 0.00 | 0.00 | 60 | 1005.7 |
| 20260509014507 | 7 | 125 | 6.4 | 11.3 | 0.00 | 0.00 | 0.00 | 59 | 1005.0 |
| 20260509014015 | 7 | 117 | 6.4 | 9.7 | 0.00 | 0.00 | 0.00 | 60 | 1005.7 |
| 20260509013513 | 7 | 120 | 6.4 | 9.7 | 0.00 | 0.00 | 0.00 | 59 | 1005.8 |
| 20260509013013 | 7 | 117 | 6.4 | 9.7 | 0.00 | 0.00 | 0.00 | 59 | 1005.7 |
| 20260509013005 | 7 | 117 | 6.4 | 11.3 | 0.00 | 0.00 | 0.00 | 59 | 1004.9 |
| 20260509012513 | 8 | 107 | 6.4 | 11.3 | 0.00 | 0.00 | 0.00 | 59 | 1005.7 |
| 20260509012036 | 8 | 111 | 4.8 | 8.0 | 0.00 | 0.00 | 0.00 | 59 | 1005.6 |
| 20260509011525 | 8 | 119 | 6.4 | 8.0 | 0.00 | 0.00 | 0.00 | 59 | 1005.6 |
| 20260509011505 | 8 | 120 | 4.8 | 9.7 | 0.00 | 0.00 | 0.00 | 59 | 1004.3 |
| 20260509011024 | 8 | 108 | 6.4 | 8.0 | 0.00 | 0.00 | 0.00 | 60 | 1005.6 |
| 20260509010513 | 8 | 108 | 6.4 | 8.0 | 0.00 | 0.00 | 0.00 | 60 | 1005.6 |
| 20260509010025 | 8 | 108 | 6.4 | 8.0 | 0.00 | 0.00 | 0.00 | 61 | 1005.5 |
| 20260509010003 | 8 | 108 | 4.8 | 9.7 | 0.00 | 0.00 | 0.00 | 61 | 1004.3 |
| 20260509005514 | 7 | 108 | 4.8 | 6.4 | 0.00 | 0.00 | 0.00 | 62 | 1005.5 |
| 20260509005046 | 8 | 108 | 3.2 | 8.0 | 0.00 | 0.00 | 0.00 | 63 | 1005.5 |
| 20260509004524 | 8 | 108 | 4.8 | 8.0 | 0.00 | 0.00 | 0.00 | 63 | 1005.4 |
| 20260509004503 | 8 | 108 | 3.2 | 9.7 | 0.00 | 0.00 | 0.00 | 62 | 1004.4 |
| 20260509004025 | 7 | 108 | 4.8 | 8.0 | 0.00 | 0.00 | 0.00 | 64 | 1005.5 |
| 20260509003547 | 7 | 95 | 3.2 | 9.7 | 0.00 | 0.00 | 0.00 | 70 | 1005.5 |
| 20260509003047 | 7 | 95 | 4.8 | 9.7 | 0.00 | 0.00 | 0.00 | 68 | 1005.5 |
| 20260509003003 | 7 | 95 | 4.8 | 9.7 | 0.00 | 0.00 | 0.00 | 67 | 1004.4 |
| 20260509002536 | 7 | 110 | 4.8 | 8.0 | 0.00 | 0.00 | 0.00 | 70 | 1005.4 |
| 20260509002014 | 6 | 106 | 4.8 | 8.0 | 0.00 | 0.00 | 0.00 | 79 | 1005.4 |
| 20260509001514 | 5 | 117 | 3.2 | 6.4 | 0.00 | 0.00 | 0.00 | 87 | 1005.4 |
| 20260509001504 | 5 | 123 | 1.6 | 6.4 | 0.00 | 0.00 | 0.00 | 87 | 1004.7 |
| 20260509001013 | 5 | 92 | 3.2 | 9.7 | 0.00 | 0.00 | 0.00 | 89 | 1005.4 |
| 20260509000514 | 5 | 92 | 4.8 | 12.9 | 0.00 | 0.00 | 0.00 | 89 | 1005.4 |
| 20260509000047 | 5 | 92 | 9.7 | 12.9 | 0.00 | 0.00 | 0.00 | 89 | 1005.5 |
| 20260509000004 | 5 | 92 | 6.4 | 12.9 | 0.00 | 0.00 | 0.00 | 88 | 1004.8 |
| 20260508235525 | 4 | 84 | 11.3 | 12.9 | 0.00 | 0.00 | 0.00 | 89 | 1005.5 |
| 20260508235013 | 4 | 67 | 8.0 | 12.9 | 0.00 | 0.00 | 0.00 | 90 | 1005.6 |
| 20260508234524 | 4 | 76 | 8.0 | 14.5 | 0.00 | 0.00 | 0.00 | 90 | 1005.6 |
| 20260508234504 | 4 | 76 | 6.4 | 14.5 | 0.00 | 0.00 | 0.00 | 89 | 1004.4 |
| 20260508234047 | 4 | 80 | 9.7 | 14.5 | 0.00 | 0.00 | 0.00 | 90 | 1005.6 |
| 20260508233525 | 4 | 76 | 8.0 | 12.9 | 0.00 | 0.00 | 0.00 | 89 | 1005.8 |
| 20260508233013 | 4 | 78 | 8.0 | 12.9 | 0.00 | 0.00 | 0.00 | 89 | 1005.8 |
| 20260508233005 | 4 | 78 | 8.0 | 12.9 | 0.00 | 0.00 | 0.00 | 89 | 1004.6 |
| 20260508232524 | 4 | 76 | 9.7 | 11.3 | 0.00 | 0.00 | 0.00 | 89 | 1005.7 |
| 20260508232013 | 4 | 85 | 8.0 | 12.9 | 0.00 | 0.00 | 0.00 | 89 | 1005.8 |
| 20260508231525 | 4 | 79 | 11.3 | 12.9 | 0.00 | 0.00 | 0.00 | 88 | 1005.8 |
| 20260508231503 | 4 | 79 | 9.7 | 14.5 | 0.00 | 0.00 | 0.00 | 88 | 1004.7 |
| 20260508231014 | 4 | 75 | 9.7 | 16.1 | 0.00 | 0.00 | 0.00 | 88 | 1005.8 |
| 20260508230514 | 4 | 80 | 11.3 | 17.7 | 0.00 | 0.00 | 0.00 | 88 | 1005.8 |
| 20260508230014 | 4 | 81 | 14.5 | 17.7 | 0.00 | 0.00 | 0.00 | 87 | 1005.8 |
| 20260508230003 | 4 | 72 | 12.9 | 17.7 | 0.00 | 0.00 | 0.00 | 86 | 1004.9 |
| 20260508225515 | 4 | 72 | 12.9 | 16.1 | 0.00 | 0.00 | 0.00 | 87 | 1005.9 |
| 20260508225014 | 4 | 74 | 12.9 | 16.1 | 0.00 | 0.00 | 0.00 | 87 | 1005.9 |
| 20260508224503 | 4 | 76 | 11.3 | 16.1 | 0.00 | 0.00 | 0.00 | 86 | 1005.1 |
| 20260508224014 | 4 | 76 | 12.9 | 16.1 | 0.00 | 0.00 | 0.00 | 86 | 1006.0 |
| 20260508223514 | 4 | 79 | 11.3 | 16.1 | 0.00 | 0.00 | 0.00 | 86 | 1006.0 |
| 20260508223047 | 4 | 69 | 12.9 | 19.3 | 0.00 | 0.00 | 0.00 | 85 | 1006.0 |
| 20260508223007 | 4 | 63 | 12.9 | 19.3 | 0.00 | 0.00 | 0.00 | 85 | 1005.5 |
| 20260508222514 | 4 | 79 | 14.5 | 22.5 | 0.00 | 0.00 | 0.00 | 85 | 1006.1 |
| 20260508222024 | 4 | 65 | 17.7 | 22.5 | 0.00 | 0.00 | 0.00 | 85 | 1006.0 |
| 20260508221504 | 4 | 70 | 16.1 | 20.9 | 0.00 | 0.00 | 0.00 | 84 | 1005.3 |
| 20260508221025 | 4 | 59 | 12.9 | 17.7 | 0.00 | 0.00 | 0.00 | 84 | 1006.1 |
| 20260508220536 | 5 | 68 | 14.5 | 17.7 | 0.00 | 0.00 | 0.00 | 85 | 1006.0 |
| 20260508220025 | 5 | 63 | 14.5 | 17.7 | 0.00 | 0.00 | 0.00 | 85 | 1006.1 |
| 20260508220020 | 5 | 68 | 14.5 | 19.3 | 0.00 | 0.00 | 0.00 | 85 | 1005.0 |
| 20260508215536 | 4 | 67 | 16.1 | 19.3 | 0.00 | 0.00 | 0.00 | 85 | 1006.2 |
| 20260508215025 | 4 | 64 | 16.1 | 17.7 | 0.00 | 0.00 | 0.00 | 85 | 1006.2 |
| 20260508214514 | 4 | 57 | 14.5 | 17.7 | 0.00 | 0.00 | 0.00 | 84 | 1006.1 |
| 20260508214504 | 4 | 62 | 12.9 | 19.3 | 0.00 | 0.00 | 0.00 | 83 | 1005.2 |
| 20260508214025 | 5 | 61 | 14.5 | 17.7 | 0.00 | 0.00 | 0.00 | 83 | 1006.2 |
| 20260508213525 | 5 | 61 | 16.1 | 17.7 | 0.00 | 0.00 | 0.00 | 83 | 1006.1 |
| 20260508213013 | 5 | 67 | 14.5 | 19.3 | 0.00 | 0.00 | 0.00 | 82 | 1006.2 |
| 20260508213009 | 5 | 69 | 12.9 | 19.3 | 0.00 | 0.00 | 0.00 | 82 | 1005.1 |
| 20260508212514 | 5 | 69 | 16.1 | 19.3 | 0.00 | 0.00 | 0.00 | 81 | 1006.2 |
| 20260508211514 | 5 | 61 | 11.3 | 14.5 | 0.00 | 0.00 | 0.00 | 81 | 1006.2 |
| 20260508211505 | 5 | 65 | 9.7 | 14.5 | 0.00 | 0.00 | 0.00 | 80 | 1005.2 |
| 20260508210014 | 5 | 59 | 11.3 | 16.1 | 0.00 | 0.00 | 0.00 | 79 | 1006.3 |
| 20260508210008 | 5 | 67 | 9.7 | 16.1 | 0.00 | 0.00 | 0.00 | 78 | 1005.4 |
| 20260508205514 | 5 | 40 | 12.9 | 16.1 | 0.00 | 0.00 | 0.00 | 79 | 1006.3 |
| 20260508205047 | 5 | 38 | 9.7 | 19.3 | 0.00 | 0.00 | 0.00 | 80 | 1006.5 |
| 20260508204525 | 5 | 49 | 16.1 | 19.3 | 0.00 | 0.00 | 0.00 | 80 | 1006.4 |
| 20260508204508 | 5 | 57 | 16.1 | 19.3 | 0.00 | 0.00 | 0.00 | 79 | 1005.5 |
| 20260508204036 | 5 | 60 | 16.1 | 19.3 | 0.00 | 0.00 | 0.00 | 79 | 1006.4 |
| 20260508203514 | 5 | 54 | 9.7 | 24.1 | 0.00 | 0.00 | 0.00 | 79 | 1006.3 |
| 20260508203014 | 5 | 65 | 20.9 | 24.1 | 0.00 | 0.00 | 0.00 | 79 | 1006.2 |
| 20260508203004 | 5 | 64 | 19.3 | 24.1 | 0.00 | 0.00 | 0.00 | 78 | 1005.7 |
| 20260508202514 | 5 | 64 | 17.7 | 22.5 | 0.00 | 0.00 | 0.00 | 80 | 1006.2 |
| 20260508202014 | 5 | 64 | 17.7 | 22.5 | 0.00 | 0.00 | 0.00 | 81 | 1006.2 |
| 20260508201515 | 5 | 49 | 12.9 | 24.1 | 0.00 | 0.00 | 0.00 | 83 | 1006.2 |
| 20260508201509 | 5 | 61 | 11.3 | 24.1 | 0.00 | 0.00 | 0.00 | 82 | 1005.6 |
| 20260508201015 | 5 | 61 | 17.7 | 24.1 | 0.00 | 0.00 | 0.00 | 82 | 1006.3 |
| 20260508200514 | 5 | 66 | 19.3 | 22.5 | 0.00 | 0.00 | 0.00 | 81 | 1006.3 |
| 20260508200040 | 5 | 55 | 17.7 | 22.5 | 0.00 | 0.00 | 0.00 | 80 | 1006.3 |
| 20260508200003 | 5 | 62 | 17.7 | 24.1 | 0.00 | 0.00 | 0.00 | 80 | 1005.2 |
| 20260508195514 | 5 | 56 | 16.1 | 25.7 | 0.00 | 0.00 | 0.00 | 80 | 1006.6 |
| 20260508195036 | 5 | 68 | 22.5 | 25.7 | 0.00 | 0.00 | 0.00 | 78 | 1006.4 |
| 20260508194514 | 5 | 69 | 19.3 | 24.1 | 0.00 | 0.00 | 0.00 | 79 | 1006.5 |
| 20260508194503 | 5 | 65 | 17.7 | 25.7 | 0.00 | 0.00 | 0.00 | 78 | 1005.4 |
| 20260508194047 | 5 | 63 | 19.3 | 25.7 | 0.00 | 0.00 | 0.00 | 78 | 1006.7 |
| 20260508193537 | 5 | 65 | 22.5 | 24.1 | 0.00 | 0.00 | 0.00 | 78 | 1006.6 |
| 20260508193014 | 5 | 64 | 20.9 | 24.1 | 0.00 | 0.00 | 0.00 | 79 | 1006.8 |
| 20260508193004 | 5 | 65 | 19.3 | 24.1 | 0.00 | 0.00 | 0.00 | 78 | 1005.7 |
| 20260508192514 | 5 | 63 | 19.3 | 24.1 | 0.00 | 0.00 | 0.00 | 79 | 1006.8 |
| 20260508192025 | 5 | 67 | 16.1 | 19.3 | 0.00 | 0.00 | 0.00 | 79 | 1006.8 |
| 20260508191515 | 5 | 72 | 14.5 | 22.5 | 0.00 | 0.00 | 0.00 | 80 | 1006.0 |
| 20260508190536 | 5 | 65 | 16.1 | 20.9 | 0.00 | 0.00 | 0.00 | 79 | 1007.1 |
| 20260508190014 | 5 | 56 | 17.7 | 22.5 | 0.00 | 0.00 | 0.00 | 79 | 1007.0 |
| 20260508190003 | 5 | 51 | 17.7 | 24.1 | 0.00 | 0.00 | 0.00 | 79 | 1006.1 |
| 20260508185014 | 5 | 57 | 17.7 | 22.5 | 0.00 | 0.00 | 0.00 | 78 | 1007.2 |
| 20260508184514 | 5 | 68 | 19.3 | 22.5 | 0.00 | 0.00 | 0.00 | 79 | 1007.1 |
| 20260508184505 | 5 | 42 | 19.3 | 24.1 | 0.00 | 0.00 | 0.00 | 79 | 1006.3 |
| 20260508184025 | 5 | 55 | 19.3 | 22.5 | 0.00 | 0.00 | 0.00 | 80 | 1007.3 |
| 20260508183514 | 4 | 69 | 19.3 | 22.5 | 0.00 | 0.00 | 0.00 | 81 | 1007.3 |
| 20260508183014 | 5 | 69 | 17.7 | 20.9 | 0.00 | 0.00 | 0.00 | 80 | 1007.3 |
| 20260508183007 | 5 | 59 | 17.7 | 24.1 | 0.00 | 0.00 | 0.00 | 80 | 1006.7 |
| 20260508182525 | 5 | 53 | 17.7 | 24.1 | 0.00 | 0.00 | 0.00 | 80 | 1007.5 |
| 20260508182025 | 5 | 60 | 19.3 | 24.1 | 0.00 | 0.00 | 0.00 | 80 | 1007.5 |
| 20260508181504 | 5 | 64 | 17.7 | 24.1 | 0.00 | 0.00 | 0.00 | 79 | 1007.2 |
| 20260508180014 | 4 | 73 | 24.1 | 27.4 | 0.00 | 0.00 | 0.00 | 79 | 1007.7 |
| 20260508180010 | 4 | 71 | 22.5 | 27.4 | 0.00 | 0.00 | 0.00 | 79 | 1007.3 |
| 20260508175525 | 4 | 75 | 22.5 | 25.7 | 0.00 | 0.00 | 0.00 | 79 | 1007.8 |
| 20260508175014 | 4 | 73 | 22.5 | 24.1 | 0.00 | 0.00 | 0.00 | 79 | 1007.8 |
| 20260508174537 | 4 | 63 | 19.3 | 25.7 | 0.00 | 0.00 | 0.00 | 80 | 1008.0 |
| 20260508174502 | 4 | 67 | 19.3 | 25.7 | 0.00 | 0.00 | 0.00 | 80 | 1007.5 |
| 20260508173014 | 4 | 79 | 19.3 | 24.1 | 0.00 | 0.00 | 0.00 | 80 | 1008.1 |
| 20260508173003 | 4 | 80 | 19.3 | 24.1 | 0.00 | 0.00 | 0.00 | 79 | 1006.8 |
| 20260508172014 | 5 | 57 | 17.7 | 19.3 | 0.00 | 0.00 | 0.00 | 80 | 1008.2 |
| 20260508171515 | 5 | 66 | 14.5 | 19.3 | 0.00 | 0.00 | 0.00 | 79 | 1008.3 |
| 20260508171504 | 5 | 65 | 14.5 | 19.3 | 0.00 | 0.00 | 0.00 | 79 | 1007.1 |
| 20260508171014 | 5 | 63 | 16.1 | 17.7 | 0.00 | 0.00 | 0.00 | 80 | 1008.2 |
| 20260508170514 | 4 | 73 | 17.7 | 19.3 | 0.00 | 0.00 | 0.00 | 81 | 1008.4 |
| 20260508170014 | 4 | 69 | 12.9 | 17.7 | 0.00 | 0.00 | 0.00 | 82 | 1008.4 |
| 20260508170004 | 4 | 78 | 12.9 | 17.7 | 0.00 | 0.00 | 0.00 | 80 | 1007.2 |
| 20260508165514 | 4 | 82 | 14.5 | 16.1 | 0.00 | 0.00 | 0.00 | 80 | 1008.4 |
| 20260508165014 | 4 | 63 | 11.3 | 17.7 | 0.00 | 0.00 | 0.00 | 81 | 1008.4 |
| 20260508164525 | 4 | 73 | 14.5 | 17.7 | 0.00 | 0.00 | 0.00 | 83 | 1008.4 |
| 20260508164510 | 3 | 74 | 14.5 | 17.7 | 0.00 | 0.00 | 0.00 | 82 | 1007.3 |
| 20260508164025 | 3 | 76 | 9.7 | 12.9 | 0.00 | 0.00 | 0.00 | 83 | 1008.6 |
| 20260508163548 | 3 | 74 | 9.7 | 14.5 | 0.00 | 0.00 | 0.00 | 83 | 1008.4 |
| 20260508163037 | 3 | 63 | 14.5 | 14.5 | 0.00 | 0.00 | 0.00 | 82 | 1008.4 |
| 20260508163003 | 3 | 63 | 12.9 | 16.1 | 0.00 | 0.00 | 0.00 | 81 | 1007.2 |
| 20260508162514 | 3 | 69 | 9.7 | 12.9 | 0.00 | 0.00 | 0.00 | 82 | 1008.4 |
| 20260508161537 | 4 | 68 | 11.3 | 16.1 | 0.00 | 0.00 | 0.00 | 81 | 1008.5 |
| 20260508161503 | 4 | 65 | 9.7 | 16.1 | 0.00 | 0.00 | 0.00 | 80 | 1007.2 |
| 20260508161014 | 4 | 88 | 12.9 | 16.1 | 0.00 | 0.00 | 0.00 | 80 | 1008.5 |
| 20260508160514 | 4 | 61 | 11.3 | 16.1 | 0.00 | 0.00 | 0.00 | 80 | 1008.6 |
| 20260508160014 | 4 | 62 | 12.9 | 16.1 | 0.00 | 0.00 | 0.00 | 78 | 1008.5 |
| 20260508160004 | 4 | 74 | 12.9 | 16.1 | 0.00 | 0.00 | 0.00 | 78 | 1007.4 |
| 20260508155514 | 4 | 91 | 9.7 | 12.9 | 0.00 | 0.00 | 0.00 | 79 | 1008.6 |
| 20260508155014 | 4 | 72 | 9.7 | 11.3 | 0.00 | 0.00 | 0.00 | 79 | 1008.8 |
| 20260508154525 | 4 | 37 | 6.4 | 16.1 | 0.00 | 0.00 | 0.00 | 79 | 1008.8 |
| 20260508154507 | 4 | 37 | 6.4 | 17.7 | 0.00 | 0.00 | 0.00 | 79 | 1007.6 |
| 20260508154037 | 4 | 30 | 12.9 | 16.1 | 0.00 | 0.00 | 0.00 | 77 | 1008.7 |
| 20260508153515 | 4 | 63 | 9.7 | 11.3 | 0.00 | 0.00 | 0.00 | 78 | 1008.8 |
| 20260508153025 | 4 | 36 | 6.4 | 11.3 | 0.00 | 0.00 | 0.00 | 79 | 1009.0 |
| 20260508153016 | 4 | 36 | 4.8 | 9.7 | 0.00 | 0.00 | 0.00 | 78 | 1007.8 |
| 20260508152025 | 4 | 32 | 4.8 | 9.7 | 0.00 | 0.00 | 0.00 | 79 | 1009.1 |
| 20260508151515 | 4 | 22 | 6.4 | 9.7 | 0.00 | 0.00 | 0.00 | 78 | 1009.0 |
| 20260508151503 | 4 | 22 | 6.4 | 12.9 | 0.00 | 0.00 | 0.00 | 77 | 1008.0 |
| 20260508151014 | 4 | 28 | 6.4 | 11.3 | 0.00 | 0.00 | 0.00 | 79 | 1009.0 |
| 20260508150525 | 4 | 31 | 8.0 | 11.3 | 0.00 | 0.00 | 0.00 | 77 | 1009.0 |
| 20260508150004 | 4 | 33 | 4.8 | 9.7 | 0.00 | 0.00 | 0.00 | 78 | 1008.1 |
| 20260508145547 | 4 | 30 | 6.4 | 9.7 | 0.00 | 0.00 | 0.00 | 78 | 1009.2 |
| 20260508145025 | 4 | 40 | 6.4 | 9.7 | 0.00 | 0.00 | 0.00 | 78 | 1009.0 |
| 20260508144525 | 4 | 40 | 4.8 | 8.0 | 0.00 | 0.00 | 0.00 | 78 | 1009.1 |
| 20260508144506 | 4 | 40 | 4.8 | 8.0 | 0.00 | 0.00 | 0.00 | 77 | 1008.2 |
| 20260508144026 | 4 | 40 | 4.8 | 9.7 | 0.00 | 0.00 | 0.00 | 78 | 1009.2 |
| 20260508143525 | 4 | 40 | 4.8 | 11.3 | 0.00 | 0.00 | 0.00 | 79 | 1009.1 |
| 20260508143014 | 4 | 40 | 8.0 | 11.3 | 0.00 | 0.00 | 0.00 | 78 | 1009.1 |
| 20260508143009 | 4 | 40 | 8.0 | 12.9 | 0.00 | 0.00 | 0.00 | 77 | 1008.2 |
| 20260508142515 | 4 | 34 | 8.0 | 11.3 | 0.00 | 0.00 | 0.00 | 76 | 1009.1 |
| 20260508142014 | 4 | 40 | 6.4 | 11.3 | 0.00 | 0.00 | 0.00 | 76 | 1009.2 |
| 20260508141526 | 4 | 31 | 8.0 | 11.3 | 0.00 | 0.00 | 0.00 | 76 | 1009.2 |
| 20260508141512 | 4 | 31 | 6.4 | 12.9 | 0.00 | 0.00 | 0.00 | 76 | 1008.4 |
| 20260508141036 | 4 | 32 | 9.7 | 11.3 | 0.00 | 0.00 | 0.00 | 75 | 1009.3 |
| 20260508140537 | 5 | 33 | 6.4 | 9.7 | 0.00 | 0.00 | 0.00 | 73 | 1009.3 |
| 20260508140014 | 5 | 33 | 8.0 | 9.7 | 0.00 | 0.00 | 0.00 | 71 | 1009.3 |
| 20260508140006 | 5 | 33 | 6.4 | 9.7 | 0.00 | 0.00 | 0.00 | 71 | 1008.5 |
| 20260508135526 | 5 | 27 | 8.0 | 9.7 | 0.00 | 0.00 | 0.00 | 71 | 1009.3 |
| 20260508135015 | 6 | 27 | 4.8 | 11.3 | 0.00 | 0.00 | 0.00 | 69 | 1009.4 |
| 20260508134506 | 6 | 23 | 4.8 | 16.1 | 0.00 | 0.00 | 0.00 | 65 | 1008.7 |
| 20260508133515 | 6 | 261 | 12.9 | 20.9 | 0.00 | 0.00 | 0.00 | 64 | 1009.5 |
| 20260508133026 | 6 | 268 | 11.3 | 17.7 | 0.00 | 0.00 | 0.00 | 64 | 1009.5 |
| 20260508133008 | 6 | 260 | 11.3 | 19.3 | 0.00 | 0.00 | 0.00 | 64 | 1008.8 |
| 20260508132515 | 7 | 226 | 11.3 | 17.7 | 0.00 | 0.00 | 0.00 | 64 | 1009.6 |
| 20260508132015 | 7 | 250 | 9.7 | 27.4 | 0.00 | 0.00 | 0.00 | 65 | 1009.7 |
| 20260508131515 | 6 | 261 | 12.9 | 27.4 | 0.00 | 0.00 | 0.00 | 65 | 1009.7 |
| 20260508131513 | 6 | 246 | 12.9 | 29.0 | 0.00 | 0.00 | 0.00 | 65 | 1009.1 |
| 20260508131015 | 6 | 271 | 11.3 | 17.7 | 0.00 | 0.00 | 0.00 | 66 | 1009.7 |
| 20260508130514 | 6 | 200 | 9.7 | 16.1 | 0.00 | 0.00 | 0.00 | 67 | 1009.7 |
| 20260508130016 | 6 | 240 | 9.7 | 14.5 | 0.00 | 0.00 | 0.00 | 67 | 1009.0 |
| 20260508125515 | 5 | 214 | 8.0 | 12.9 | 0.00 | 0.00 | 0.00 | 68 | 1009.7 |
| 20260508125037 | 5 | 207 | 8.0 | 11.3 | 0.00 | 0.00 | 0.00 | 68 | 1009.8 |
| 20260508124521 | 5 | 229 | 4.8 | 12.9 | 0.00 | 0.00 | 0.00 | 68 | 1009.5 |
| 20260508124515 | 5 | 229 | 4.8 | 11.3 | 0.00 | 0.00 | 0.00 | 68 | 1009.9 |
| 20260508124015 | 5 | 225 | 6.4 | 11.3 | 0.00 | 0.00 | 0.00 | 68 | 1010.0 |
| 20260508123514 | 4 | 207 | 3.2 | 9.7 | 0.00 | 0.00 | 0.00 | 69 | 1010.0 |
| 20260508123015 | 4 | 209 | 4.8 | 9.7 | 0.00 | 0.00 | 0.00 | 68 | 1009.9 |
| 20260508123004 | 4 | 209 | 4.8 | 11.3 | 0.00 | 0.00 | 0.00 | 68 | 1009.3 |
| 20260508122526 | 4 | 250 | 6.4 | 9.7 | 0.00 | 0.00 | 0.00 | 69 | 1010.0 |
| 20260508122014 | 3 | 224 | 3.2 | 9.7 | 0.00 | 0.00 | 0.00 | 69 | 1009.9 |
| 20260508121509 | 3 | 229 | 4.8 | 12.9 | 0.00 | 0.00 | 0.00 | 69 | 1008.3 |
| 20260508121015 | 3 | 240 | 4.8 | 12.9 | 0.00 | 0.00 | 0.00 | 70 | 1009.9 |
| 20260508120548 | 3 | 240 | 6.4 | 12.9 | 0.00 | 0.00 | 0.00 | 70 | 1010.0 |
| 20260508120015 | 3 | 239 | 4.8 | 8.0 | 0.00 | 0.00 | 0.00 | 70 | 1010.0 |
| 20260508115014 | 3 | 234 | 4.8 | 9.7 | 0.00 | 0.00 | 0.00 | 70 | 1009.9 |
| 20260508114518 | 3 | 261 | 4.8 | 11.3 | 0.00 | 0.00 | 0.00 | 69 | 1008.6 |
| 20260508114515 | 3 | 245 | 4.8 | 9.7 | 0.00 | 0.00 | 0.00 | 70 | 1009.9 |
| 20260508114015 | 3 | 236 | 3.2 | 8.0 | 0.00 | 0.00 | 0.00 | 70 | 1009.8 |
| 20260508113024 | 2 | 205 | 4.8 | 9.7 | 0.00 | 0.00 | 0.00 | 70 | 1008.5 |
| 20260508113015 | 2 | 198 | 6.4 | 9.7 | 0.00 | 0.00 | 0.00 | 70 | 1009.7 |
| 20260508112515 | 2 | 215 | 4.8 | 9.7 | 0.00 | 0.00 | 0.00 | 70 | 1009.6 |
| 20260508112026 | 2 | 236 | 3.2 | 6.4 | 0.00 | 0.00 | 0.00 | 71 | 1009.6 |
| 20260508111526 | 2 | 225 | 3.2 | 6.4 | 0.00 | 0.00 | 0.00 | 71 | 1009.6 |
| 20260508111507 | 2 | 228 | 3.2 | 8.0 | 0.00 | 0.00 | 0.00 | 70 | 1008.5 |
| 20260508111026 | 2 | 204 | 4.8 | 8.0 | 0.00 | 0.00 | 0.00 | 71 | 1009.6 |
| 20260508110515 | 2 | 222 | 6.4 | 9.7 | 0.00 | 0.00 | 0.00 | 71 | 1009.5 |
| 20260508110037 | 2 | 196 | 6.4 | 9.7 | 0.00 | 0.00 | 0.00 | 71 | 1009.6 |
| 20260508110008 | 2 | 196 | 6.4 | 9.7 | 0.00 | 0.00 | 0.00 | 71 | 1008.9 |
| 20260508105548 | 2 | 198 | 6.4 | 8.0 | 0.00 | 0.00 | 0.00 | 71 | 1009.6 |
| 20260508105015 | 1 | 193 | 4.8 | 11.3 | 0.00 | 0.00 | 0.00 | 72 | 1009.5 |
| 20260508104548 | 1 | 198 | 6.4 | 11.3 | 0.00 | 0.00 | 0.00 | 72 | 1009.5 |
| 20260508104504 | 1 | 194 | 6.4 | 11.3 | 0.00 | 0.00 | 0.00 | 71 | 1008.4 |
| 20260508104014 | 1 | 219 | 6.4 | 11.3 | 0.00 | 0.00 | 0.00 | 72 | 1009.4 |
| 20260508103515 | 1 | 192 | 8.0 | 11.3 | 0.00 | 0.00 | 0.00 | 71 | 1009.4 |
| 20260508103015 | 1 | 195 | 8.0 | 11.3 | 0.00 | 0.00 | 0.00 | 71 | 1009.4 |
| 20260508103003 | 1 | 195 | 6.4 | 11.3 | 0.00 | 0.00 | 0.00 | 71 | 1008.0 |
| 20260508102537 | 1 | 204 | 6.4 | 9.7 | 0.00 | 0.00 | 0.00 | 71 | 1009.4 |